Time;durP1;ratioP1;P1;durP2;ratioP2;P2;SDS_P1;SDS_P2;PMS_P1;PMS_P2;Temp;Humidity;BMP_temperature;BMP_pressure;BME280_temperature;BME280_humidity;BME280_pressure;Samples;Min_cycle;Max_cycle;Signal;HPM_P1;HPM_P2
2023/01/02 00:00:48;;;;;;;31.45;13.25;;;;;;;10.27;100.00;100888.88;5003347;28;20092;-90
2023/01/02 00:03:13;;;;;;;34.90;13.50;;;;;;;10.32;100.00;100889.38;4980769;28;20053;-88
2023/01/02 00:05:38;;;;;;;30.88;14.95;;;;;;;10.26;100.00;100871.25;4980714;28;20145;-89
2023/01/02 00:08:04;;;;;;;38.60;13.52;;;;;;;10.24;100.00;100882.00;4999024;28;20117;-88
2023/01/02 00:10:29;;;;;;;33.15;13.73;;;;;;;10.23;100.00;100866.44;4979809;28;20774;-88
2023/01/02 00:12:55;;;;;;;42.45;13.35;;;;;;;10.35;100.00;100877.44;4980149;28;20026;-89
2023/01/02 00:15:20;;;;;;;31.83;13.20;;;;;;;10.35;100.00;100871.03;4983472;28;20030;-88
2023/01/02 00:17:45;;;;;;;30.80;13.25;;;;;;;10.34;100.00;100864.63;4996100;28;20117;-89
2023/01/02 00:20:11;;;;;;;33.38;14.93;;;;;;;10.42;100.00;100867.53;4979523;28;20434;-88
2023/01/02 00:22:36;;;;;;;37.58;15.15;;;;;;;10.44;100.00;100870.78;4996283;28;20106;-89
2023/01/02 00:25:02;;;;;;;38.85;14.90;;;;;;;10.47;100.00;100861.63;4978722;28;20053;-89
2023/01/02 00:27:27;;;;;;;38.05;14.73;;;;;;;10.36;100.00;100853.06;4978789;28;20070;-89
2023/01/02 00:29:52;;;;;;;33.75;13.93;;;;;;;10.37;100.00;100852.69;4981704;28;20054;-89
2023/01/02 00:32:18;;;;;;;33.25;15.38;;;;;;;10.37;100.00;100858.28;4975686;28;20552;-89
2023/01/02 00:34:43;;;;;;;40.97;15.75;;;;;;;10.45;100.00;100856.38;4981612;28;20440;-89
2023/01/02 00:37:09;;;;;;;36.58;14.65;;;;;;;10.40;100.00;100861.53;5000839;28;20034;-88
2023/01/02 00:39:34;;;;;;;42.63;16.63;;;;;;;10.35;100.00;100854.22;4990066;28;20057;-88
2023/01/02 00:41:59;;;;;;;33.40;14.77;;;;;;;10.40;100.00;100858.72;4988878;28;20052;-89
2023/01/02 00:44:25;;;;;;;39.65;16.08;;;;;;;10.40;100.00;100845.53;5002165;28;20118;-89
2023/01/02 00:46:50;;;;;;;39.13;15.10;;;;;;;10.40;100.00;100855.91;4987497;28;20034;-88
2023/01/02 00:49:15;;;;;;;45.45;18.10;;;;;;;10.53;100.00;100857.31;5000674;28;20076;-89
2023/01/02 00:51:41;;;;;;;48.10;16.17;;;;;;;10.38;100.00;100831.91;4985850;28;20489;-89
2023/01/02 00:54:06;;;;;;;37.08;15.25;;;;;;;10.43;100.00;100843.97;4989330;28;20062;-89
2023/01/02 00:56:32;;;;;;;40.63;14.32;;;;;;;10.55;100.00;100860.53;4985970;28;20501;-89
2023/01/02 00:58:57;;;;;;;43.08;17.35;;;;;;;10.52;100.00;100847.28;5001287;28;20040;-91
2023/01/02 01:01:22;;;;;;;42.28;15.57;;;;;;;10.40;100.00;100833.53;4985431;28;20586;-90
2023/01/02 01:03:48;;;;;;;39.78;15.90;;;;;;;10.51;100.00;100854.06;4984989;28;20049;-89
2023/01/02 01:06:13;;;;;;;43.75;16.58;;;;;;;10.55;100.00;100841.75;4987635;28;20042;-89
2023/01/02 01:08:39;;;;;;;40.85;16.40;;;;;;;10.53;100.00;100843.31;4992852;28;20125;-89
2023/01/02 01:11:11;;;;;;;41.30;15.23;;;;;;;10.55;100.00;100852.13;4988220;28;20379;-90
2023/01/02 01:13:36;;;;;;;40.47;16.77;;;;;;;10.49;100.00;100834.84;4984470;28;20034;-89
2023/01/02 01:16:06;;;;;;;41.90;15.45;;;;;;;10.46;100.00;100826.44;4985421;28;20040;-90
2023/01/02 01:18:31;;;;;;;42.80;15.35;;;;;;;10.54;100.00;100839.31;4981775;28;20066;-89
2023/01/02 01:20:57;;;;;;;45.45;16.35;;;;;;;10.45;100.00;100817.22;4981571;28;20520;-89
2023/01/02 01:23:23;;;;;;;38.38;14.43;;;;;;;10.51;100.00;100824.09;4981831;28;20034;-89
2023/01/02 01:25:48;;;;;;;40.55;15.55;;;;;;;10.38;100.00;100794.75;4983771;28;22751;-89
2023/01/02 01:28:14;;;;;;;35.10;14.23;;;;;;;10.53;100.00;100823.72;4997241;28;21517;-90
2023/01/02 01:30:39;;;;;;;46.30;15.15;;;;;;;10.55;100.00;100840.94;4984082;28;20037;-89
2023/01/02 01:33:05;;;;;;;35.03;14.00;;;;;;;10.46;100.00;100813.25;4982889;28;20065;-89
2023/01/02 01:35:33;;;;;;;34.45;15.02;;;;;;;10.57;100.00;100822.56;4987726;28;20053;-89
2023/01/02 01:37:58;;;;;;;31.98;13.75;;;;;;;10.45;100.00;100816.41;4987817;28;20037;-89
2023/01/02 01:40:23;;;;;;;33.53;13.55;;;;;;;10.48;100.00;100807.28;4990581;28;20125;-89
2023/01/02 01:42:49;;;;;;;36.50;14.45;;;;;;;10.52;100.00;100820.13;4988528;28;20105;-89
2023/01/02 01:45:15;;;;;;;36.85;12.75;;;;;;;10.49;100.00;100817.25;4983825;28;20050;-89
2023/01/02 01:47:48;;;;;;;39.47;13.40;;;;;;;10.50;100.00;100805.69;4983865;28;20121;-89
2023/01/02 01:50:18;;;;;;;33.47;12.15;;;;;;;10.58;100.00;100820.56;5003012;28;20482;-88
2023/01/02 01:52:48;;;;;;;37.55;15.32;;;;;;;10.51;100.00;100800.91;4982440;28;20088;-88
2023/01/02 01:55:17;;;;;;;42.17;14.10;;;;;;;10.58;100.00;100820.56;4984162;28;20137;-90
2023/01/02 01:57:57;;;;;;;35.65;14.55;;;;;;;10.52;100.00;100819.28;4996705;28;20022;-90
2023/01/02 02:00:22;;;;;;;31.83;12.73;;;;;;;10.55;100.00;100804.56;4984010;28;20026;-89
2023/01/02 02:02:54;;;;;;;38.67;14.50;;;;;;;10.60;100.00;100815.41;4981578;28;20034;-89
2023/01/02 02:05:24;;;;;;;37.10;14.07;;;;;;;10.61;100.00;100811.44;4985580;28;20046;-89
2023/01/02 02:08:01;;;;;;;38.30;13.75;;;;;;;10.63;100.00;100814.66;4984497;28;20041;-88
2023/01/02 02:10:26;;;;;;;35.72;13.70;;;;;;;10.62;100.00;100813.03;4999598;28;20022;-89
2023/01/02 02:12:52;;;;;;;36.70;14.57;;;;;;;10.54;100.00;100800.97;4982350;28;20525;-88
2023/01/02 02:15:20;;;;;;;34.70;13.25;;;;;;;10.66;100.00;100802.69;4981887;28;20026;-91
2023/01/02 02:18:11;;;;;;;29.75;12.38;;;;;;;10.53;100.00;100790.13;4983478;28;20560;-89
2023/01/02 02:20:51;;;;;;;31.38;12.77;;;;;;;10.66;100.00;100793.50;4986675;28;20041;-89
2023/01/02 02:23:38;;;;;;;31.88;11.77;;;;;;;10.61;100.00;100789.03;4987698;28;20026;-89
2023/01/02 02:26:18;;;;;;;36.28;13.02;;;;;;;10.69;100.00;100795.53;4997099;28;20148;-89
2023/01/02 02:28:47;;;;;;;32.90;14.05;;;;;;;10.74;100.00;100793.19;4998403;28;20080;-88
2023/01/02 02:31:36;;;;;;;32.08;12.60;;;;;;;10.72;100.00;100795.56;4981969;28;20022;-89
2023/01/02 02:34:28;;;;;;;26.95;12.00;;;;;;;10.70;100.00;100797.94;4984176;28;20041;-90
2023/01/02 02:37:03;;;;;;;35.15;12.05;;;;;;;10.63;100.00;100797.88;5003559;28;20086;-88
2023/01/02 02:39:39;;;;;;;36.88;13.60;;;;;;;10.71;100.00;100810.78;4986459;28;20068;-89
2023/01/02 02:42:42;;;;;;;28.55;11.95;;;;;;;10.74;100.00;100815.59;4986035;28;20417;-89
2023/01/02 02:45:12;;;;;;;32.20;11.98;;;;;;;10.71;100.00;100809.94;4985646;28;20059;-89
2023/01/02 02:47:49;;;;;;;38.50;12.93;;;;;;;10.66;100.00;100790.69;4985603;28;20618;-90
2023/01/02 02:50:41;;;;;;;34.80;12.10;;;;;;;10.68;100.00;100794.72;4999728;28;20035;-88
2023/01/02 02:53:26;;;;;;;36.87;12.73;;;;;;;10.68;100.00;100783.53;4987273;28;20044;-89
2023/01/02 02:55:56;;;;;;;34.78;14.00;;;;;;;10.67;100.00;100787.53;4980801;28;20149;-89
2023/01/02 02:58:24;;;;;;;27.85;12.13;;;;;;;10.76;100.00;100795.63;4988301;28;20049;-88
2023/01/02 03:00:49;;;;;;;36.25;13.80;;;;;;;10.67;100.00;100779.13;4980200;28;20088;-89
2023/01/02 03:03:20;;;;;;;29.30;11.15;;;;;;;10.70;100.00;100783.94;4984287;28;20117;-88
2023/01/02 03:06:09;;;;;;;33.03;13.50;;;;;;;10.77;100.00;100803.66;5000004;28;20054;-89
2023/01/02 03:08:49;;;;;;;29.88;12.23;;;;;;;10.81;100.00;100803.69;4961586;28;20491;-89
2023/01/02 03:11:15;;;;;;;35.40;11.73;;;;;;;10.73;100.00;100797.19;4997776;28;20100;-89
2023/01/02 03:14:05;;;;;;;24.15;11.43;;;;;;;10.72;100.00;100784.38;4998725;28;20450;-89
2023/01/02 03:16:39;;;;;;;28.20;11.75;;;;;;;10.66;100.00;100763.50;5003403;28;20084;-89
2023/01/02 03:19:25;;;;;;;29.20;12.13;;;;;;;10.78;100.00;100793.25;4987017;28;20035;-89
2023/01/02 03:22:14;;;;;;;32.33;13.15;;;;;;;10.77;100.00;100780.44;4996573;28;20018;-89
2023/01/02 03:24:42;;;;;;;28.33;11.63;;;;;;;10.81;100.00;100786.06;4985401;28;20038;-91
2023/01/02 03:27:14;;;;;;;34.42;11.75;;;;;;;10.71;100.00;100777.19;4979999;28;20153;-88
2023/01/02 03:29:45;;;;;;;25.73;11.02;;;;;;;10.72;100.00;100783.56;4986209;28;20026;-88
2023/01/02 03:32:22;;;;;;;31.13;12.55;;;;;;;10.86;100.00;100791.34;4977844;28;20544;-89
2023/01/02 03:34:50;;;;;;;34.63;13.85;;;;;;;10.77;100.00;100783.22;4988771;28;20089;-89
2023/01/02 03:37:21;;;;;;;37.67;12.35;;;;;;;10.78;100.00;100777.25;4981885;28;20034;-89
2023/01/02 03:39:52;;;;;;;45.17;13.45;;;;;;;10.67;100.00;100753.13;4986591;28;20486;-89
2023/01/02 03:42:30;;;;;;;37.13;13.30;;;;;;;10.71;100.00;100754.78;4986197;28;20042;-90
2023/01/02 03:45:16;;;;;;;32.92;11.88;;;;;;;10.70;100.00;100752.34;4981742;28;20093;-89
2023/01/02 03:47:56;;;;;;;38.92;13.82;;;;;;;10.82;100.00;100759.72;4998773;28;20509;-89
2023/01/02 03:50:52;;;;;;;36.30;14.27;;;;;;;10.87;100.00;100767.75;4987081;28;20038;-89
2023/01/02 03:53:19;;;;;;;26.58;12.95;;;;;;;10.76;100.00;100751.63;4979081;28;20078;-89
2023/01/02 03:56:18;;;;;;;31.25;13.13;;;;;;;10.67;100.00;100739.94;4984859;28;20085;-89
2023/01/02 03:58:49;;;;;;;23.88;12.75;;;;;;;10.89;100.00;100763.38;4988737;28;20044;-90
2023/01/02 04:01:25;;;;;;;39.63;13.10;;;;;;;10.80;100.00;100754.47;4996619;28;20500;-90
2023/01/02 04:04:11;;;;;;;27.63;12.63;;;;;;;10.89;100.00;100765.38;4984156;28;20129;-89
2023/01/02 04:06:41;;;;;;;33.50;15.13;;;;;;;10.93;100.00;100766.22;4962703;28;20078;-90
2023/01/02 04:09:12;;;;;;;29.13;11.88;;;;;;;11.01;100.00;100759.50;4985530;28;20033;-90
2023/01/02 04:11:42;;;;;;;29.45;13.07;;;;;;;11.04;100.00;100755.13;4988302;28;20490;-90
2023/01/02 04:14:23;;;;;;;22.38;10.40;;;;;;;11.07;100.00;100763.59;5002354;28;20027;-91
2023/01/02 04:16:52;;;;;;;30.42;10.77;;;;;;;10.93;100.00;100729.81;4983039;28;20038;-91
2023/01/02 04:19:27;;;;;;;29.15;11.18;;;;;;;11.11;100.00;100758.81;4999875;28;20192;-89
2023/01/02 04:21:57;;;;;;;34.47;12.93;;;;;;;11.08;100.00;100748.38;4983371;28;20037;-90
2023/01/02 04:24:41;;;;;;;24.15;10.82;;;;;;;11.27;100.00;100763.38;4986524;28;20085;-90
2023/01/02 04:27:19;;;;;;;30.85;12.77;;;;;;;11.19;100.00;100757.72;5000792;28;20125;-91
2023/01/02 04:29:44;;;;;;;27.67;9.77;;;;;;;11.16;100.00;100758.47;5003102;28;20026;-90
2023/01/02 04:32:17;;;;;;;31.85;10.95;;;;;;;11.27;100.00;100778.19;4997401;28;20440;-90
2023/01/02 04:34:45;;;;;;;37.15;11.57;;;;;;;11.17;100.00;100754.47;4980756;28;20035;-90
2023/01/02 04:37:29;;;;;;;25.85;11.07;;;;;;;11.31;100.00;100767.81;4983598;28;20038;-89
2023/01/02 04:39:58;;;;;;;22.58;11.25;;;;;;;11.28;100.00;100759.34;4994240;28;20030;-91
2023/01/02 04:42:24;;;;;;;25.58;10.85;;;;;;;11.31;100.00;100775.41;4982044;28;20384;-90
2023/01/02 04:44:50;;;;;;;24.50;11.32;;;;;;;11.27;100.00;100760.56;4984157;28;20023;-91
2023/01/02 04:47:15;;;;;;;26.30;11.68;;;;;;;11.25;100.00;100754.53;4983555;28;20033;-89
2023/01/02 04:49:40;;;;;;;22.75;10.70;;;;;;;11.39;100.00;100768.69;4990626;28;20042;-90
2023/01/02 04:52:06;;;;;;;26.30;10.70;;;;;;;11.42;100.00;100759.50;4991495;28;20515;-90
2023/01/02 04:54:32;;;;;;;25.13;10.70;;;;;;;11.36;100.00;100758.25;4996573;28;20030;-89
2023/01/02 04:56:57;;;;;;;24.23;10.88;;;;;;;11.39;100.00;100761.09;4991514;28;20137;-91
2023/01/02 04:59:22;;;;;;;21.85;10.23;;;;;;;11.32;100.00;100755.44;4990016;28;20030;-89
2023/01/02 05:01:48;;;;;;;23.38;11.50;;;;;;;11.36;100.00;100763.84;4991963;28;20031;-89
2023/01/02 05:04:13;;;;;;;30.63;11.27;;;;;;;11.33;100.00;100767.44;4990448;28;20394;-89
2023/01/02 05:06:38;;;;;;;27.13;9.68;;;;;;;11.50;100.00;100780.00;4989882;28;20054;-89
2023/01/02 05:09:04;;;;;;;28.40;11.77;;;;;;;11.45;100.00;100772.75;5008843;28;20034;-89
2023/01/02 05:11:29;;;;;;;19.75;9.35;;;;;;;11.38;100.00;100764.25;5000738;28;20027;-89
2023/01/02 05:13:54;;;;;;;22.38;10.13;;;;;;;11.41;100.00;100763.50;4990931;28;20609;-90
2023/01/02 05:16:20;;;;;;;27.25;12.85;;;;;;;11.48;100.00;100773.97;4986162;28;20037;-89
2023/01/02 05:18:45;;;;;;;20.67;9.85;;;;;;;11.42;100.00;100770.72;4985331;28;20034;-90
2023/01/02 05:23:59;;;;;;;25.35;10.30;;;;;;;11.58;100.00;100785.28;4987203;28;20081;-89
2023/01/02 05:26:24;;;;;;;22.42;9.70;;;;;;;11.41;100.00;100768.31;4990045;28;20480;-89
2023/01/02 05:28:53;;;;;;;23.70;9.52;;;;;;;11.44;100.00;100773.94;4985721;28;20026;-90
2023/01/02 05:31:19;;;;;;;20.80;9.68;;;;;;;11.48;100.00;100782.38;5003332;28;20030;-90
2023/01/02 05:33:50;;;;;;;21.08;9.65;;;;;;;11.60;100.00;100782.09;4984286;28;20108;-89
2023/01/02 05:36:15;;;;;;;23.20;9.38;;;;;;;11.55;100.00;100779.63;4981753;28;20042;-89
2023/01/02 05:38:41;;;;;;;21.15;9.48;;;;;;;11.58;100.00;100784.47;4976924;28;20035;-89
2023/01/02 05:41:07;;;;;;;21.48;10.13;;;;;;;11.58;100.00;100788.09;4986221;28;20022;-91
2023/01/02 05:43:35;;;;;;;24.85;10.20;;;;;;;11.52;100.00;100772.81;4981058;28;20045;-89
2023/01/02 05:46:11;;;;;;;22.85;10.00;;;;;;;11.69;100.00;100795.78;4986121;28;20752;-89
2023/01/02 05:48:37;;;;;;;20.33;9.73;;;;;;;11.59;100.00;100786.06;4979037;28;20077;-89
2023/01/02 05:51:07;;;;;;;17.65;9.60;;;;;;;11.58;100.00;100793.69;4979317;28;20121;-90
2023/01/02 05:53:33;;;;;;;18.20;8.70;;;;;;;11.63;100.00;100803.72;4978699;28;20065;-90
2023/01/02 05:56:09;;;;;;;21.10;8.20;;;;;;;11.71;100.00;100807.41;4981365;28;20105;-91
2023/01/02 05:58:37;;;;;;;29.17;10.57;;;;;;;11.67;100.00;100812.19;4989905;28;20457;-89
2023/01/02 06:01:26;;;;;;;20.55;9.82;;;;;;;11.62;100.00;100804.16;4991917;28;20069;-89
2023/01/02 06:03:55;;;;;;;17.75;8.85;;;;;;;11.59;100.00;100812.13;4975553;28;20041;-89
2023/01/02 06:06:22;;;;;;;18.65;9.77;;;;;;;11.51;100.00;100795.59;4997531;28;20042;-91
2023/01/02 06:08:48;;;;;;;20.55;9.52;;;;;;;11.48;100.00;100799.19;5004931;28;20030;-93
2023/01/02 06:11:14;;;;;;;19.23;10.10;;;;;;;11.47;100.00;100798.41;4990616;28;20029;-92
2023/01/02 06:13:39;;;;;;;25.17;9.25;;;;;;;11.49;100.00;100801.63;4982691;28;20267;-92
2023/01/02 06:16:07;;;;;;;21.70;9.40;;;;;;;11.33;100.00;100787.06;4988438;28;20030;-92
2023/01/02 06:18:34;;;;;;;21.42;10.65;;;;;;;11.45;100.00;100797.97;4990060;28;20506;-94
2023/01/02 06:21:01;;;;;;;22.10;9.07;;;;;;;11.39;100.00;100810.72;4987937;28;20036;-90
2023/01/02 06:23:26;;;;;;;27.75;11.18;;;;;;;11.37;100.00;100810.31;4983420;28;20368;-87
2023/01/02 06:25:52;;;;;;;21.08;9.40;;;;;;;11.21;100.00;100818.13;4988145;28;20041;-89
2023/01/02 06:28:18;;;;;;;18.17;9.80;;;;;;;11.28;100.00;100826.59;4999192;28;20038;-86
2023/01/02 06:30:44;;;;;;;17.98;9.90;;;;;;;11.29;100.00;100829.03;4983133;28;20026;-90
2023/01/02 06:33:09;;;;;;;18.92;9.48;;;;;;;11.19;100.00;100824.13;5001662;28;20030;-92
2023/01/02 06:35:34;;;;;;;18.95;8.85;;;;;;;11.35;100.00;100849.13;4989913;28;20057;-90
2023/01/02 06:38:00;;;;;;;16.85;8.85;;;;;;;11.14;100.00;100849.69;4977783;28;20030;-88
2023/01/02 06:40:25;;;;;;;13.93;8.70;;;;;;;11.05;100.00;100872.41;4994089;28;20076;-88
2023/01/02 06:42:51;;;;;;;12.93;7.03;;;;;;;11.05;100.00;100894.00;4992216;28;20407;-89
2023/01/02 06:45:16;;;;;;;11.05;5.95;;;;;;;10.90;100.00;100901.38;4986230;28;20478;-89
2023/01/02 06:47:41;;;;;;;9.07;3.85;;;;;;;10.75;100.00;100911.59;4986187;28;20076;-88
2023/01/02 06:50:07;;;;;;;4.28;3.20;;;;;;;10.58;100.00;100924.13;4983498;28;20434;-90
2023/01/02 06:52:33;;;;;;;6.13;3.50;;;;;;;10.54;100.00;100900.88;4986271;28;20018;-90
2023/01/02 06:54:58;;;;;;;3.90;2.80;;;;;;;10.56;100.00;100918.94;5002023;28;20049;-90
2023/01/02 06:57:24;;;;;;;5.00;2.58;;;;;;;10.61;100.00;100945.78;4988768;28;20030;-92
2023/01/02 06:59:49;;;;;;;3.35;2.38;;;;;;;10.48;100.00;100948.00;4981769;28;20022;-90
2023/01/02 07:02:14;;;;;;;4.85;2.70;;;;;;;10.45;100.00;100964.72;4987051;28;20120;-90
2023/01/02 07:04:40;;;;;;;4.10;2.83;;;;;;;10.26;100.00;100952.38;4986384;28;20030;-90
2023/01/02 07:07:07;;;;;;;4.25;2.70;;;;;;;10.36;100.00;100954.59;4986812;28;20041;-90
2023/01/02 07:09:33;;;;;;;5.00;3.15;;;;;;;10.20;100.00;100964.28;4990070;28;20367;-91
2023/01/02 07:11:58;;;;;;;4.53;3.15;;;;;;;10.24;100.00;100973.53;5000079;28;20134;-91
2023/01/02 07:14:24;;;;;;;6.20;3.65;;;;;;;10.22;100.00;101001.88;5002534;28;20026;-90
2023/01/02 07:16:50;;;;;;;9.35;5.85;;;;;;;9.96;100.00;100997.81;4986358;28;20108;-91
2023/01/02 07:19:15;;;;;;;10.32;5.22;;;;;;;9.81;100.00;100987.56;5002179;28;20160;-91
2023/01/02 07:21:41;;;;;;;8.23;5.00;;;;;;;10.12;100.00;101008.91;4981112;28;20433;-91
2023/01/02 07:24:11;;;;;;;9.98;5.28;;;;;;;10.11;100.00;101023.25;4978718;28;20037;-92
2023/01/02 07:26:36;;;;;;;11.48;5.78;;;;;;;9.80;100.00;101018.66;4995433;28;20056;-91
2023/01/02 07:29:02;;;;;;;8.98;5.53;;;;;;;10.03;100.00;101058.66;4988153;28;20402;-90
2023/01/02 07:31:28;;;;;;;9.50;4.82;;;;;;;9.69;100.00;101035.22;4989325;28;20034;-91
2023/01/02 07:33:54;;;;;;;12.90;6.13;;;;;;;9.83;100.00;101049.50;4984247;28;20026;-91
2023/01/02 07:36:21;;;;;;;10.35;5.72;;;;;;;9.76;100.00;101057.72;4979717;28;20026;-92
2023/01/02 07:38:51;;;;;;;10.23;5.60;;;;;;;9.84;100.00;101059.47;4994333;28;20039;-91
2023/01/02 07:41:18;;;;;;;12.57;4.60;;;;;;;9.57;100.00;101055.72;4991681;28;20022;-91
2023/01/02 07:43:45;;;;;;;10.82;5.80;;;;;;;9.81;100.00;101098.56;4977714;28;20553;-91
2023/01/02 07:46:11;;;;;;;12.63;6.00;;;;;;;9.62;100.00;101107.75;5003411;28;20029;-91
2023/01/02 07:48:37;;;;;;;16.38;6.65;;;;;;;9.50;100.00;101106.69;4984554;28;20058;-92
2023/01/02 07:51:04;;;;;;;16.83;6.68;;;;;;;9.51;100.00;101130.69;4993799;28;20044;-93
2023/01/02 07:53:30;;;;;;;11.40;5.18;;;;;;;9.74;100.00;101130.78;5004345;28;20085;-91
2023/01/02 07:55:57;;;;;;;12.68;5.63;;;;;;;9.67;100.00;101150.19;4989787;28;20038;-92
2023/01/02 07:58:23;;;;;;;18.42;6.25;;;;;;;9.61;100.00;101117.28;5007424;28;20710;-91
2023/01/02 08:00:48;;;;;;;12.38;5.25;;;;;;;9.51;100.00;101113.91;4989298;28;20030;-91
2023/01/02 08:03:14;;;;;;;14.10;5.60;;;;;;;9.28;100.00;101129.75;5008119;28;20030;-92
2023/01/02 08:05:39;;;;;;;9.88;4.60;;;;;;;9.39;100.00;101169.91;5005654;28;20046;-91
2023/01/02 08:08:05;;;;;;;10.90;4.20;;;;;;;9.22;100.00;101182.25;4983111;28;20037;-91
2023/01/02 08:10:30;;;;;;;9.50;3.75;;;;;;;9.70;100.00;101171.03;4983012;28;20029;-91
2023/01/02 08:12:58;;;;;;;11.75;4.57;;;;;;;9.66;100.00;101195.28;4989711;28;20030;-89
2023/01/02 08:15:24;;;;;;;9.90;3.53;;;;;;;9.63;100.00;101199.59;4984369;28;20037;-91
2023/01/02 08:17:50;;;;;;;12.15;4.65;;;;;;;9.65;100.00;101199.25;4994310;28;20026;-89
2023/01/02 08:20:16;;;;;;;7.18;2.22;;;;;;;9.31;100.00;101202.44;4979520;28;20044;-90
2023/01/02 08:22:41;;;;;;;7.07;3.00;;;;;;;9.49;100.00;101227.22;4978147;28;20029;-91
2023/01/02 08:25:08;;;;;;;7.25;2.92;;;;;;;9.43;100.00;101223.09;5000042;28;20026;-91
2023/01/02 08:27:34;;;;;;;9.57;3.05;;;;;;;9.10;100.00;101222.25;4978318;28;20026;-90
2023/01/02 08:30:00;;;;;;;6.95;2.47;;;;;;;9.31;100.00;101246.31;4983760;28;20026;-91
2023/01/02 08:32:26;;;;;;;5.60;3.33;;;;;;;9.63;100.00;101232.34;4982081;28;20113;-91
2023/01/02 08:34:51;;;;;;;10.15;3.05;;;;;;;9.63;100.00;101257.50;4987203;28;20033;-91
2023/01/02 08:37:16;;;;;;;9.00;2.67;;;;;;;9.22;100.00;101268.06;4985936;28;20033;-90
2023/01/02 08:39:42;;;;;;;6.32;2.13;;;;;;;9.23;100.00;101264.88;4984340;28;20073;-91
2023/01/02 08:42:07;;;;;;;6.22;2.75;;;;;;;9.48;100.00;101285.06;5002442;28;20081;-92
2023/01/02 08:44:34;;;;;;;6.65;2.17;;;;;;;9.29;100.00;101284.97;4984321;28;20079;-91
2023/01/02 08:46:59;;;;;;;9.40;2.88;;;;;;;9.39;100.00;101295.63;4982431;28;20033;-90
2023/01/02 08:49:24;;;;;;;6.60;2.30;;;;;;;9.53;100.00;101289.59;4987413;28;20659;-91
2023/01/02 08:51:50;;;;;;;7.10;2.58;;;;;;;9.75;100.00;101307.69;4984422;28;20524;-89
2023/01/02 08:54:15;;;;;;;6.53;2.75;;;;;;;9.30;100.00;101303.38;4984439;28;20030;-89
2023/01/02 08:56:41;;;;;;;6.68;2.92;;;;;;;9.50;100.00;101296.69;4986457;28;20027;-87
2023/01/02 08:59:09;;;;;;;5.22;2.67;;;;;;;9.46;100.00;101301.38;4988146;28;20158;-88
2023/01/02 09:01:35;;;;;;;10.60;3.40;;;;;;;9.42;100.00;101314.44;5003056;28;20057;-87
2023/01/02 09:04:01;;;;;;;9.82;4.18;;;;;;;9.22;100.00;101313.53;4988991;28;20034;-88
2023/01/02 09:06:29;;;;;;;8.23;2.63;;;;;;;9.29;100.00;101316.50;4993077;28;20054;-88
2023/01/02 09:08:57;;;;;;;10.15;4.15;;;;;;;8.90;100.00;101319.06;4991993;28;20177;-88
2023/01/02 09:11:31;;;;;;;9.50;3.45;;;;;;;9.32;100.00;101334.56;4993057;28;20040;-89
2023/01/02 09:13:58;;;;;;;8.68;4.03;;;;;;;9.37;100.00;101334.28;5008879;28;20058;-89
2023/01/02 09:16:24;;;;;;;8.05;4.20;;;;;;;9.14;100.00;101334.88;4983090;28;20397;-88
2023/01/02 09:18:50;;;;;;;9.68;3.05;;;;;;;9.08;100.00;101339.09;4989366;28;20033;-88
2023/01/02 09:21:16;;;;;;;13.30;4.35;;;;;;;9.30;100.00;101340.50;4985292;28;20018;-87
2023/01/02 09:23:41;;;;;;;7.63;3.25;;;;;;;9.43;100.00;101346.03;4992794;28;20033;-89
2023/01/02 09:26:07;;;;;;;7.90;3.72;;;;;;;9.47;100.00;101353.31;4988046;28;20030;-88
2023/01/02 09:28:35;;;;;;;8.98;3.50;;;;;;;9.14;100.00;101368.38;4988176;28;20038;-90
2023/01/02 09:31:05;;;;;;;8.07;3.60;;;;;;;9.22;100.00;101369.41;5001483;28;20037;-89
2023/01/02 09:33:30;;;;;;;8.43;4.30;;;;;;;9.16;100.00;101382.81;4988305;28;20030;-88
2023/01/02 09:36:00;;;;;;;8.40;4.30;;;;;;;9.12;100.00;101386.66;4990798;28;20039;-87
2023/01/02 09:38:25;;;;;;;8.90;4.22;;;;;;;9.28;100.00;101378.34;4995414;28;20040;-88
2023/01/02 09:40:52;;;;;;;9.85;4.28;;;;;;;9.03;100.00;101388.81;5008850;28;20402;-88
2023/01/02 09:43:43;;;;;;;11.02;3.40;;;;;;;9.15;100.00;101385.97;4995007;28;20454;-88
2023/01/02 09:46:26;;;;;;;8.77;3.20;;;;;;;8.80;100.00;101382.97;4986476;28;20097;-86
2023/01/02 09:48:52;;;;;;;7.97;3.58;;;;;;;9.19;100.00;101391.66;5005117;28;20089;-88
2023/01/02 09:51:17;;;;;;;8.15;4.38;;;;;;;9.26;100.00;101398.25;4990321;28;20034;-88
2023/01/02 09:53:43;;;;;;;12.75;5.75;;;;;;;9.06;100.00;101399.25;4986928;28;20030;-89
2023/01/02 09:56:20;;;;;;;12.15;5.38;;;;;;;8.98;100.00;101409.44;4981635;28;20035;-89
2023/01/02 09:59:05;;;;;;;10.48;4.93;;;;;;;8.95;100.00;101412.91;4998322;28;20494;-87
2023/01/02 10:01:36;;;;;;;12.15;5.15;;;;;;;9.01;100.00;101411.50;5001919;28;20019;-89
2023/01/02 10:04:19;;;;;;;9.45;5.15;;;;;;;9.18;100.00;101417.97;4989572;28;20052;-87
2023/01/02 10:07:10;;;;;;;10.10;4.20;;;;;;;9.04;100.00;101421.94;4993022;28;20082;-88
2023/01/02 10:09:38;;;;;;;11.68;5.88;;;;;;;9.19;100.00;101430.75;4987807;28;20050;-90
2023/01/02 10:12:14;;;;;;;13.20;5.65;;;;;;;8.99;100.00;101427.78;4991189;28;20035;-87
2023/01/02 10:14:53;;;;;;;10.60;5.47;;;;;;;9.12;100.00;101437.75;4986619;28;20405;-88
2023/01/02 10:17:19;;;;;;;8.77;4.82;;;;;;;9.12;100.00;101448.91;4998669;28;20112;-90
2023/01/02 10:20:03;;;;;;;20.25;6.45;;;;;;;9.03;100.00;101428.72;4982612;28;20166;-87
2023/01/02 10:22:35;;;;;;;6.88;4.10;;;;;;;9.01;100.00;101439.44;5005214;28;20019;-88
2023/01/02 10:25:07;;;;;;;7.00;5.13;;;;;;;9.08;100.00;101448.00;4987800;28;20057;-88
2023/01/02 10:27:40;;;;;;;13.00;4.78;;;;;;;8.97;100.00;101446.06;4985859;28;20030;-87
2023/01/02 10:30:16;;;;;;;11.30;4.35;;;;;;;9.12;100.00;101432.16;4986117;28;20034;-89
2023/01/02 10:32:46;;;;;;;8.30;4.85;;;;;;;8.97;100.00;101432.91;5008073;28;20029;-89
2023/01/02 10:35:25;;;;;;;10.18;3.80;;;;;;;8.97;100.00;101448.88;4997112;28;20030;-90
2023/01/02 10:37:53;;;;;;;15.00;4.93;;;;;;;9.21;100.00;101450.75;4986673;28;20037;-89
2023/01/02 10:40:19;;;;;;;7.45;3.03;;;;;;;9.11;100.00;101447.31;4990830;28;20099;-90
2023/01/02 10:42:47;;;;;;;8.50;3.50;;;;;;;9.24;100.00;101445.28;4990941;28;20109;-88
2023/01/02 10:45:15;;;;;;;6.03;2.70;;;;;;;9.21;100.00;101445.16;5000739;28;20092;-89
2023/01/02 10:47:40;;;;;;;7.25;2.72;;;;;;;9.07;100.00;101437.22;5001430;28;20033;-90
2023/01/02 10:50:21;;;;;;;9.07;3.42;;;;;;;9.04;100.00;101449.88;4990815;28;20026;-89
2023/01/02 10:52:52;;;;;;;9.55;2.83;;;;;;;9.18;100.00;101431.94;4986500;28;20031;-88
2023/01/02 10:55:39;;;;;;;8.25;2.53;;;;;;;9.07;100.00;101446.38;4993248;28;20037;-90
2023/01/02 10:58:21;;;;;;;14.60;4.55;;;;;;;9.28;100.00;101423.84;4998669;28;20130;-89
2023/01/02 11:01:01;;;;;;;13.27;2.95;;;;;;;9.22;100.00;101442.03;4995349;28;20038;-88
2023/01/02 11:03:26;;;;;;;6.38;2.15;;;;;;;9.05;100.00;101431.97;4989858;28;20038;-90
2023/01/02 11:05:54;;;;;;;10.00;2.85;;;;;;;9.24;100.00;101438.91;4994254;28;20069;-89
2023/01/02 11:08:42;;;;;;;10.95;3.13;;;;;;;8.97;100.00;101441.28;4990214;28;20394;-89
2023/01/02 11:11:16;;;;;;;12.10;3.45;;;;;;;8.98;100.00;101442.94;4987531;28;20046;-90
2023/01/02 11:13:46;;;;;;;13.75;4.35;;;;;;;9.06;100.00;101444.75;4988754;28;20775;-90
2023/01/02 11:16:15;;;;;;;11.68;3.08;;;;;;;9.19;100.00;101444.72;4985480;28;20885;-89
2023/01/02 11:18:52;;;;;;;8.20;2.97;;;;;;;9.05;100.00;101471.06;4988869;28;20033;-89
2023/01/02 11:21:28;;;;;;;7.68;3.15;;;;;;;9.11;100.00;101472.44;4988080;28;20030;-89
2023/01/02 11:24:04;;;;;;;12.85;3.35;;;;;;;9.18;100.00;101468.25;4996756;28;20535;-90